sensor_id;sensor_type;location;lat;lon;timestamp;P1;durP1;ratioP1;P2;durP2;ratioP2
52776;SDS011;38656;54.260;20.822;2023-02-01T00:00:20;5.55;;;3.47;;
52776;SDS011;38656;54.260;20.822;2023-02-01T00:02:47;5.80;;;4.00;;
52776;SDS011;38656;54.260;20.822;2023-02-01T00:05:13;18.85;;;4.72;;
52776;SDS011;38656;54.260;20.822;2023-02-01T00:07:39;7.88;;;4.50;;
52776;SDS011;38656;54.260;20.822;2023-02-01T00:10:05;10.82;;;7.00;;
52776;SDS011;38656;54.260;20.822;2023-02-01T00:12:31;7.68;;;5.93;;
52776;SDS011;38656;54.260;20.822;2023-02-01T00:14:58;9.05;;;5.78;;
52776;SDS011;38656;54.260;20.822;2023-02-01T00:17:24;6.10;;;3.90;;
52776;SDS011;38656;54.260;20.822;2023-02-01T00:19:50;5.25;;;2.92;;
52776;SDS011;38656;54.260;20.822;2023-02-01T00:22:16;5.97;;;3.03;;
52776;SDS011;38656;54.260;20.822;2023-02-01T00:24:42;3.60;;;3.08;;
52776;SDS011;38656;54.260;20.822;2023-02-01T00:27:08;7.18;;;3.88;;
52776;SDS011;38656;54.260;20.822;2023-02-01T00:29:34;10.38;;;4.00;;
52776;SDS011;38656;54.260;20.822;2023-02-01T00:32:00;11.57;;;3.67;;
52776;SDS011;38656;54.260;20.822;2023-02-01T00:34:26;5.72;;;2.83;;
52776;SDS011;38656;54.260;20.822;2023-02-01T00:36:52;2.58;;;1.98;;
52776;SDS011;38656;54.260;20.822;2023-02-01T00:39:18;9.07;;;3.17;;
52776;SDS011;38656;54.260;20.822;2023-02-01T00:41:44;4.70;;;2.65;;
52776;SDS011;38656;54.260;20.822;2023-02-01T00:44:10;3.95;;;2.45;;
52776;SDS011;38656;54.260;20.822;2023-02-01T00:46:36;5.20;;;1.77;;
52776;SDS011;38656;54.260;20.822;2023-02-01T00:49:02;4.93;;;2.42;;
52776;SDS011;38656;54.260;20.822;2023-02-01T00:51:29;6.53;;;2.78;;
52776;SDS011;38656;54.260;20.822;2023-02-01T00:53:55;4.97;;;2.20;;
52776;SDS011;38656;54.260;20.822;2023-02-01T00:56:22;13.60;;;2.58;;
52776;SDS011;38656;54.260;20.822;2023-02-01T00:58:48;8.32;;;2.58;;
52776;SDS011;38656;54.260;20.822;2023-02-01T01:01:15;2.63;;;1.80;;
52776;SDS011;38656;54.260;20.822;2023-02-01T01:04:00;5.15;;;2.33;;
52776;SDS011;38656;54.260;20.822;2023-02-01T01:06:27;4.50;;;2.17;;
52776;SDS011;38656;54.260;20.822;2023-02-01T01:08:54;6.35;;;2.45;;
52776;SDS011;38656;54.260;20.822;2023-02-01T01:11:25;5.10;;;2.08;;
52776;SDS011;38656;54.260;20.822;2023-02-01T01:13:52;8.88;;;2.72;;
52776;SDS011;38656;54.260;20.822;2023-02-01T01:16:19;4.38;;;2.03;;
52776;SDS011;38656;54.260;20.822;2023-02-01T01:18:45;6.60;;;1.70;;
52776;SDS011;38656;54.260;20.822;2023-02-01T01:21:12;1.77;;;1.48;;
52776;SDS011;38656;54.260;20.822;2023-02-01T01:23:39;4.53;;;2.38;;
52776;SDS011;38656;54.260;20.822;2023-02-01T01:26:06;4.10;;;1.42;;
52776;SDS011;38656;54.260;20.822;2023-02-01T01:28:32;5.15;;;2.13;;
52776;SDS011;38656;54.260;20.822;2023-02-01T01:30:58;5.72;;;2.15;;
52776;SDS011;38656;54.260;20.822;2023-02-01T01:33:24;6.75;;;2.25;;
52776;SDS011;38656;54.260;20.822;2023-02-01T01:35:50;6.55;;;2.72;;
52776;SDS011;38656;54.260;20.822;2023-02-01T01:38:16;5.80;;;2.15;;
52776;SDS011;38656;54.260;20.822;2023-02-01T01:40:46;2.50;;;2.15;;
52776;SDS011;38656;54.260;20.822;2023-02-01T01:43:13;3.65;;;1.85;;
52776;SDS011;38656;54.260;20.822;2023-02-01T01:45:39;3.53;;;1.98;;
52776;SDS011;38656;54.260;20.822;2023-02-01T01:48:07;4.28;;;2.17;;
52776;SDS011;38656;54.260;20.822;2023-02-01T01:50:40;5.13;;;2.08;;
52776;SDS011;38656;54.260;20.822;2023-02-01T01:53:07;6.38;;;3.33;;
52776;SDS011;38656;54.260;20.822;2023-02-01T01:55:35;16.23;;;11.50;;
52776;SDS011;38656;54.260;20.822;2023-02-01T01:58:04;11.57;;;2.45;;
52776;SDS011;38656;54.260;20.822;2023-02-01T02:00:31;14.80;;;6.72;;
52776;SDS011;38656;54.260;20.822;2023-02-01T02:02:58;5.57;;;3.78;;
52776;SDS011;38656;54.260;20.822;2023-02-01T02:05:28;6.50;;;2.75;;
52776;SDS011;38656;54.260;20.822;2023-02-01T02:07:55;2.58;;;1.50;;
52776;SDS011;38656;54.260;20.822;2023-02-01T02:10:22;3.92;;;2.38;;
52776;SDS011;38656;54.260;20.822;2023-02-01T02:13:08;4.03;;;1.40;;
52776;SDS011;38656;54.260;20.822;2023-02-01T02:15:35;5.47;;;2.33;;
52776;SDS011;38656;54.260;20.822;2023-02-01T02:18:08;17.90;;;2.30;;
52776;SDS011;38656;54.260;20.822;2023-02-01T02:39:34;4.60;;;1.80;;
52776;SDS011;38656;54.260;20.822;2023-02-01T02:45:12;3.90;;;1.23;;
52776;SDS011;38656;54.260;20.822;2023-02-01T02:48:09;6.20;;;2.60;;
52776;SDS011;38656;54.260;20.822;2023-02-01T02:53:30;6.65;;;3.35;;
52776;SDS011;38656;54.260;20.822;2023-02-01T02:56:16;3.28;;;2.20;;
52776;SDS011;38656;54.260;20.822;2023-02-01T02:59:03;2.72;;;1.60;;
52776;SDS011;38656;54.260;20.822;2023-02-01T03:01:49;6.35;;;2.83;;
52776;SDS011;38656;54.260;20.822;2023-02-01T03:09:55;6.30;;;2.10;;
52776;SDS011;38656;54.260;20.822;2023-02-01T03:12:21;1.38;;;1.27;;
52776;SDS011;38656;54.260;20.822;2023-02-01T03:15:07;8.45;;;1.80;;
52776;SDS011;38656;54.260;20.822;2023-02-01T03:17:35;9.32;;;5.85;;
52776;SDS011;38656;54.260;20.822;2023-02-01T03:20:03;7.28;;;3.53;;
52776;SDS011;38656;54.260;20.822;2023-02-01T03:22:30;3.25;;;1.58;;
52776;SDS011;38656;54.260;20.822;2023-02-01T03:25:06;5.25;;;1.75;;
52776;SDS011;38656;54.260;20.822;2023-02-01T03:27:40;2.85;;;1.77;;
52776;SDS011;38656;54.260;20.822;2023-02-01T03:30:26;1.65;;;0.95;;
52776;SDS011;38656;54.260;20.822;2023-02-01T03:32:55;2.70;;;1.15;;
52776;SDS011;38656;54.260;20.822;2023-02-01T03:38:01;4.35;;;1.60;;
52776;SDS011;38656;54.260;20.822;2023-02-01T03:40:30;7.00;;;1.65;;
52776;SDS011;38656;54.260;20.822;2023-02-01T03:42:58;4.68;;;2.05;;
52776;SDS011;38656;54.260;20.822;2023-02-01T03:45:32;4.22;;;1.70;;
52776;SDS011;38656;54.260;20.822;2023-02-01T03:48:00;8.60;;;2.53;;
52776;SDS011;38656;54.260;20.822;2023-02-01T03:50:27;3.80;;;2.28;;
52776;SDS011;38656;54.260;20.822;2023-02-01T03:52:56;2.45;;;1.17;;
52776;SDS011;38656;54.260;20.822;2023-02-01T03:55:24;8.40;;;2.30;;
52776;SDS011;38656;54.260;20.822;2023-02-01T03:57:57;4.00;;;2.08;;
52776;SDS011;38656;54.260;20.822;2023-02-01T04:00:25;9.13;;;6.57;;
52776;SDS011;38656;54.260;20.822;2023-02-01T04:02:51;12.52;;;5.03;;
52776;SDS011;38656;54.260;20.822;2023-02-01T04:05:18;2.72;;;1.05;;
52776;SDS011;38656;54.260;20.822;2023-02-01T04:07:44;2.20;;;1.90;;
52776;SDS011;38656;54.260;20.822;2023-02-01T04:10:10;7.70;;;3.45;;
52776;SDS011;38656;54.260;20.822;2023-02-01T04:12:36;5.72;;;2.10;;
52776;SDS011;38656;54.260;20.822;2023-02-01T04:15:03;4.80;;;2.00;;
52776;SDS011;38656;54.260;20.822;2023-02-01T04:17:29;7.72;;;4.72;;
52776;SDS011;38656;54.260;20.822;2023-02-01T04:19:55;3.85;;;1.90;;
52776;SDS011;38656;54.260;20.822;2023-02-01T04:22:21;3.70;;;1.70;;
52776;SDS011;38656;54.260;20.822;2023-02-01T04:24:47;7.20;;;2.47;;
52776;SDS011;38656;54.260;20.822;2023-02-01T04:27:13;7.20;;;2.03;;
52776;SDS011;38656;54.260;20.822;2023-02-01T04:29:39;6.68;;;1.70;;
52776;SDS011;38656;54.260;20.822;2023-02-01T04:32:06;5.00;;;1.88;;
52776;SDS011;38656;54.260;20.822;2023-02-01T04:34:32;11.57;;;3.03;;
52776;SDS011;38656;54.260;20.822;2023-02-01T04:36:58;8.10;;;1.98;;
52776;SDS011;38656;54.260;20.822;2023-02-01T04:39:24;8.35;;;3.45;;
52776;SDS011;38656;54.260;20.822;2023-02-01T04:41:50;7.45;;;2.47;;
52776;SDS011;38656;54.260;20.822;2023-02-01T04:44:16;7.72;;;2.08;;
52776;SDS011;38656;54.260;20.822;2023-02-01T04:46:43;8.43;;;3.03;;
52776;SDS011;38656;54.260;20.822;2023-02-01T04:49:10;6.50;;;1.50;;
52776;SDS011;38656;54.260;20.822;2023-02-01T04:51:36;8.50;;;3.10;;
52776;SDS011;38656;54.260;20.822;2023-02-01T04:54:02;14.52;;;3.05;;
52776;SDS011;38656;54.260;20.822;2023-02-01T04:56:29;11.20;;;3.20;;
52776;SDS011;38656;54.260;20.822;2023-02-01T04:58:55;6.43;;;2.25;;
52776;SDS011;38656;54.260;20.822;2023-02-01T05:01:21;3.92;;;1.73;;
52776;SDS011;38656;54.260;20.822;2023-02-01T05:03:47;11.40;;;3.95;;
52776;SDS011;38656;54.260;20.822;2023-02-01T05:06:13;7.35;;;1.95;;
52776;SDS011;38656;54.260;20.822;2023-02-01T05:08:39;14.18;;;4.22;;
52776;SDS011;38656;54.260;20.822;2023-02-01T05:11:05;8.05;;;3.22;;
52776;SDS011;38656;54.260;20.822;2023-02-01T05:13:31;4.38;;;2.50;;
52776;SDS011;38656;54.260;20.822;2023-02-01T05:16:13;8.38;;;2.92;;
52776;SDS011;38656;54.260;20.822;2023-02-01T05:18:39;1.88;;;1.70;;
52776;SDS011;38656;54.260;20.822;2023-02-01T05:21:05;7.28;;;3.58;;
52776;SDS011;38656;54.260;20.822;2023-02-01T05:23:31;6.07;;;2.45;;
52776;SDS011;38656;54.260;20.822;2023-02-01T05:26:00;3.25;;;1.55;;
52776;SDS011;38656;54.260;20.822;2023-02-01T05:28:26;3.70;;;1.90;;
52776;SDS011;38656;54.260;20.822;2023-02-01T05:30:53;2.47;;;1.30;;
52776;SDS011;38656;54.260;20.822;2023-02-01T05:33:19;6.55;;;3.92;;
52776;SDS011;38656;54.260;20.822;2023-02-01T05:35:45;11.43;;;5.18;;
52776;SDS011;38656;54.260;20.822;2023-02-01T05:38:11;5.97;;;2.97;;
52776;SDS011;38656;54.260;20.822;2023-02-01T05:40:37;11.05;;;2.95;;
52776;SDS011;38656;54.260;20.822;2023-02-01T05:43:03;6.70;;;2.47;;
52776;SDS011;38656;54.260;20.822;2023-02-01T05:45:29;9.98;;;3.40;;
52776;SDS011;38656;54.260;20.822;2023-02-01T05:47:55;10.73;;;3.10;;
52776;SDS011;38656;54.260;20.822;2023-02-01T05:50:21;7.72;;;3.72;;
52776;SDS011;38656;54.260;20.822;2023-02-01T05:52:47;10.07;;;5.20;;
52776;SDS011;38656;54.260;20.822;2023-02-01T05:55:13;7.18;;;3.47;;
52776;SDS011;38656;54.260;20.822;2023-02-01T05:57:39;16.80;;;5.90;;
52776;SDS011;38656;54.260;20.822;2023-02-01T06:00:06;7.07;;;3.95;;
52776;SDS011;38656;54.260;20.822;2023-02-01T06:02:32;8.85;;;3.90;;
52776;SDS011;38656;54.260;20.822;2023-02-01T06:04:58;6.05;;;2.85;;
52776;SDS011;38656;54.260;20.822;2023-02-01T06:07:24;17.83;;;6.63;;
52776;SDS011;38656;54.260;20.822;2023-02-01T06:09:50;10.73;;;5.45;;
52776;SDS011;38656;54.260;20.822;2023-02-01T06:12:16;12.85;;;6.20;;
52776;SDS011;38656;54.260;20.822;2023-02-01T06:14:42;6.45;;;2.78;;
52776;SDS011;38656;54.260;20.822;2023-02-01T06:17:10;3.72;;;2.38;;
52776;SDS011;38656;54.260;20.822;2023-02-01T06:19:36;3.15;;;2.15;;
52776;SDS011;38656;54.260;20.822;2023-02-01T06:22:02;5.95;;;2.10;;
52776;SDS011;38656;54.260;20.822;2023-02-01T06:24:31;4.20;;;1.98;;
52776;SDS011;38656;54.260;20.822;2023-02-01T06:26:57;2.63;;;1.85;;
52776;SDS011;38656;54.260;20.822;2023-02-01T06:29:23;2.30;;;1.65;;
52776;SDS011;38656;54.260;20.822;2023-02-01T06:31:49;3.53;;;3.05;;
52776;SDS011;38656;54.260;20.822;2023-02-01T06:34:15;9.55;;;4.78;;
52776;SDS011;38656;54.260;20.822;2023-02-01T06:36:41;5.10;;;2.75;;
52776;SDS011;38656;54.260;20.822;2023-02-01T06:39:07;7.28;;;2.50;;
52776;SDS011;38656;54.260;20.822;2023-02-01T06:41:33;4.25;;;2.22;;
52776;SDS011;38656;54.260;20.822;2023-02-01T06:44:02;3.88;;;2.10;;
52776;SDS011;38656;54.260;20.822;2023-02-01T06:46:28;4.78;;;3.20;;
52776;SDS011;38656;54.260;20.822;2023-02-01T06:48:54;4.53;;;3.00;;
52776;SDS011;38656;54.260;20.822;2023-02-01T06:51:21;6.18;;;4.00;;
52776;SDS011;38656;54.260;20.822;2023-02-01T06:53:48;13.68;;;5.63;;
52776;SDS011;38656;54.260;20.822;2023-02-01T06:56:14;10.60;;;4.53;;
52776;SDS011;38656;54.260;20.822;2023-02-01T06:58:40;6.70;;;4.03;;
52776;SDS011;38656;54.260;20.822;2023-02-01T07:01:07;11.40;;;8.88;;
52776;SDS011;38656;54.260;20.822;2023-02-01T07:03:34;15.13;;;7.63;;
52776;SDS011;38656;54.260;20.822;2023-02-01T07:06:00;12.65;;;7.80;;
52776;SDS011;38656;54.260;20.822;2023-02-01T07:08:27;7.95;;;3.95;;
52776;SDS011;38656;54.260;20.822;2023-02-01T07:10:53;14.63;;;8.90;;
52776;SDS011;38656;54.260;20.822;2023-02-01T07:13:19;7.85;;;3.22;;
52776;SDS011;38656;54.260;20.822;2023-02-01T07:15:45;10.75;;;5.00;;
52776;SDS011;38656;54.260;20.822;2023-02-01T07:18:14;13.82;;;5.90;;
52776;SDS011;38656;54.260;20.822;2023-02-01T07:20:40;12.13;;;8.43;;
52776;SDS011;38656;54.260;20.822;2023-02-01T07:23:08;20.23;;;8.55;;
52776;SDS011;38656;54.260;20.822;2023-02-01T07:25:35;10.48;;;4.25;;
52776;SDS011;38656;54.260;20.822;2023-02-01T07:28:01;14.15;;;5.43;;
52776;SDS011;38656;54.260;20.822;2023-02-01T07:30:27;12.82;;;5.32;;
52776;SDS011;38656;54.260;20.822;2023-02-01T07:32:53;17.88;;;5.82;;
52776;SDS011;38656;54.260;20.822;2023-02-01T07:35:19;10.57;;;6.90;;
52776;SDS011;38656;54.260;20.822;2023-02-01T07:37:45;16.55;;;8.38;;
52776;SDS011;38656;54.260;20.822;2023-02-01T07:40:12;12.90;;;7.28;;
52776;SDS011;38656;54.260;20.822;2023-02-01T07:42:38;15.50;;;9.60;;
52776;SDS011;38656;54.260;20.822;2023-02-01T07:45:04;10.98;;;8.45;;
52776;SDS011;38656;54.260;20.822;2023-02-01T07:47:30;11.48;;;6.30;;
52776;SDS011;38656;54.260;20.822;2023-02-01T07:49:56;14.10;;;7.88;;
52776;SDS011;38656;54.260;20.822;2023-02-01T07:52:22;29.88;;;20.42;;
52776;SDS011;38656;54.260;20.822;2023-02-01T07:54:48;9.40;;;5.57;;
52776;SDS011;38656;54.260;20.822;2023-02-01T07:57:14;32.05;;;18.20;;
52776;SDS011;38656;54.260;20.822;2023-02-01T07:59:40;6.45;;;4.35;;
52776;SDS011;38656;54.260;20.822;2023-02-01T08:02:26;7.50;;;5.53;;
52776;SDS011;38656;54.260;20.822;2023-02-01T08:04:52;10.18;;;8.43;;
52776;SDS011;38656;54.260;20.822;2023-02-01T08:07:18;18.02;;;10.93;;
52776;SDS011;38656;54.260;20.822;2023-02-01T08:09:44;12.07;;;6.22;;
52776;SDS011;38656;54.260;20.822;2023-02-01T08:12:10;9.10;;;3.80;;
52776;SDS011;38656;54.260;20.822;2023-02-01T08:14:36;8.95;;;5.60;;
52776;SDS011;38656;54.260;20.822;2023-02-01T08:17:03;6.20;;;3.42;;
52776;SDS011;38656;54.260;20.822;2023-02-01T08:19:29;13.25;;;3.63;;
52776;SDS011;38656;54.260;20.822;2023-02-01T08:21:55;4.68;;;2.42;;
52776;SDS011;38656;54.260;20.822;2023-02-01T08:24:21;6.80;;;3.28;;
52776;SDS011;38656;54.260;20.822;2023-02-01T08:26:47;18.98;;;7.38;;
52776;SDS011;38656;54.260;20.822;2023-02-01T08:29:13;7.75;;;3.13;;
52776;SDS011;38656;54.260;20.822;2023-02-01T08:31:39;12.95;;;7.70;;
52776;SDS011;38656;54.260;20.822;2023-02-01T08:34:07;14.43;;;8.15;;
52776;SDS011;38656;54.260;20.822;2023-02-01T08:36:33;12.52;;;6.03;;
52776;SDS011;38656;54.260;20.822;2023-02-01T08:39:00;11.88;;;6.20;;
52776;SDS011;38656;54.260;20.822;2023-02-01T08:41:28;32.97;;;25.98;;
52776;SDS011;38656;54.260;20.822;2023-02-01T08:43:54;21.50;;;19.27;;
52776;SDS011;38656;54.260;20.822;2023-02-01T08:46:21;27.30;;;23.10;;
52776;SDS011;38656;54.260;20.822;2023-02-01T08:48:47;30.38;;;24.52;;
52776;SDS011;38656;54.260;20.822;2023-02-01T08:51:13;69.53;;;44.50;;
52776;SDS011;38656;54.260;20.822;2023-02-01T08:53:40;10.00;;;6.50;;
52776;SDS011;38656;54.260;20.822;2023-02-01T08:56:06;50.95;;;40.13;;
52776;SDS011;38656;54.260;20.822;2023-02-01T08:58:33;77.93;;;47.45;;
52776;SDS011;38656;54.260;20.822;2023-02-01T09:01:05;9.90;;;6.88;;
52776;SDS011;38656;54.260;20.822;2023-02-01T09:03:31;95.57;;;55.40;;
52776;SDS011;38656;54.260;20.822;2023-02-01T09:06:04;115.35;;;74.22;;
52776;SDS011;38656;54.260;20.822;2023-02-01T09:08:31;13.73;;;12.07;;
52776;SDS011;38656;54.260;20.822;2023-02-01T09:10:59;13.30;;;8.13;;
52776;SDS011;38656;54.260;20.822;2023-02-01T09:13:25;14.93;;;8.77;;
52776;SDS011;38656;54.260;20.822;2023-02-01T09:15:51;8.43;;;4.88;;
52776;SDS011;38656;54.260;20.822;2023-02-01T09:18:17;7.82;;;4.25;;
52776;SDS011;38656;54.260;20.822;2023-02-01T09:20:43;5.45;;;4.15;;
52776;SDS011;38656;54.260;20.822;2023-02-01T09:23:09;15.68;;;14.07;;
52776;SDS011;38656;54.260;20.822;2023-02-01T09:25:36;12.05;;;9.02;;
52776;SDS011;38656;54.260;20.822;2023-02-01T09:28:03;27.38;;;20.75;;
52776;SDS011;38656;54.260;20.822;2023-02-01T09:30:31;24.33;;;19.23;;
52776;SDS011;38656;54.260;20.822;2023-02-01T09:32:57;21.27;;;11.50;;
52776;SDS011;38656;54.260;20.822;2023-02-01T09:35:23;10.65;;;5.50;;
52776;SDS011;38656;54.260;20.822;2023-02-01T09:37:49;11.50;;;6.88;;
52776;SDS011;38656;54.260;20.822;2023-02-01T09:40:15;35.38;;;23.30;;
52776;SDS011;38656;54.260;20.822;2023-02-01T09:45:17;43.08;;;26.90;;
52776;SDS011;38656;54.260;20.822;2023-02-01T09:47:53;26.90;;;5.07;;
52776;SDS011;38656;54.260;20.822;2023-02-01T09:50:21;20.58;;;6.80;;
52776;SDS011;38656;54.260;20.822;2023-02-01T10:00:34;19.05;;;10.43;;
52776;SDS011;38656;54.260;20.822;2023-02-01T10:03:01;26.02;;;15.10;;
52776;SDS011;38656;54.260;20.822;2023-02-01T10:13:03;33.25;;;20.65;;
52776;SDS011;38656;54.260;20.822;2023-02-01T10:25:56;29.00;;;14.48;;
52776;SDS011;38656;54.260;20.822;2023-02-01T10:28:26;26.80;;;15.05;;
52776;SDS011;38656;54.260;20.822;2023-02-01T10:30:56;28.15;;;14.70;;
52776;SDS011;38656;54.260;20.822;2023-02-01T10:33:24;29.05;;;17.17;;
52776;SDS011;38656;54.260;20.822;2023-02-01T10:35:58;18.88;;;6.75;;
52776;SDS011;38656;54.260;20.822;2023-02-01T10:38:28;66.97;;;34.20;;
52776;SDS011;38656;54.260;20.822;2023-02-01T10:40:56;61.13;;;34.15;;
52776;SDS011;38656;54.260;20.822;2023-02-01T10:43:26;21.42;;;12.32;;
52776;SDS011;38656;54.260;20.822;2023-02-01T10:45:52;103.63;;;54.95;;
52776;SDS011;38656;54.260;20.822;2023-02-01T10:48:18;194.20;;;100.53;;
52776;SDS011;38656;54.260;20.822;2023-02-01T10:50:54;37.13;;;11.95;;
52776;SDS011;38656;54.260;20.822;2023-02-01T10:54:08;31.35;;;19.38;;
52776;SDS011;38656;54.260;20.822;2023-02-01T10:56:11;27.95;;;17.33;;
52776;SDS011;38656;54.260;20.822;2023-02-01T10:58:47;31.50;;;16.33;;
52776;SDS011;38656;54.260;20.822;2023-02-01T11:03:58;32.47;;;19.58;;
52776;SDS011;38656;54.260;20.822;2023-02-01T11:08:56;18.90;;;6.35;;
52776;SDS011;38656;54.260;20.822;2023-02-01T11:11:23;28.45;;;21.70;;
52776;SDS011;38656;54.260;20.822;2023-02-01T11:14:34;21.20;;;14.07;;
52776;SDS011;38656;54.260;20.822;2023-02-01T11:16:39;130.80;;;56.17;;
52776;SDS011;38656;54.260;20.822;2023-02-01T11:19:05;17.30;;;9.50;;
52776;SDS011;38656;54.260;20.822;2023-02-01T11:21:32;35.20;;;24.10;;
52776;SDS011;38656;54.260;20.822;2023-02-01T11:24:02;29.90;;;15.85;;
52776;SDS011;38656;54.260;20.822;2023-02-01T11:26:30;25.45;;;14.35;;
52776;SDS011;38656;54.260;20.822;2023-02-01T11:28:59;9.88;;;6.75;;
52776;SDS011;38656;54.260;20.822;2023-02-01T11:31:27;34.45;;;30.85;;
52776;SDS011;38656;54.260;20.822;2023-02-01T11:33:55;17.30;;;4.60;;
52776;SDS011;38656;54.260;20.822;2023-02-01T11:36:28;15.85;;;11.35;;
52776;SDS011;38656;54.260;20.822;2023-02-01T11:39:09;45.15;;;33.70;;
52776;SDS011;38656;54.260;20.822;2023-02-01T11:47:26;19.58;;;11.27;;
52776;SDS011;38656;54.260;20.822;2023-02-01T11:49:56;30.60;;;14.38;;
52776;SDS011;38656;54.260;20.822;2023-02-01T12:05:19;77.30;;;38.70;;
52776;SDS011;38656;54.260;20.822;2023-02-01T12:20:57;54.35;;;34.53;;
52776;SDS011;38656;54.260;20.822;2023-02-01T12:39:22;26.98;;;16.02;;
52776;SDS011;38656;54.260;20.822;2023-02-01T12:46:45;43.65;;;31.85;;
52776;SDS011;38656;54.260;20.822;2023-02-01T12:49:17;35.60;;;20.15;;
52776;SDS011;38656;54.260;20.822;2023-02-01T12:51:45;41.25;;;28.40;;
52776;SDS011;38656;54.260;20.822;2023-02-01T12:54:19;50.22;;;34.28;;
52776;SDS011;38656;54.260;20.822;2023-02-01T12:56:57;25.58;;;12.90;;
52776;SDS011;38656;54.260;20.822;2023-02-01T12:59:30;17.92;;;8.73;;
52776;SDS011;38656;54.260;20.822;2023-02-01T13:02:01;21.83;;;11.32;;
52776;SDS011;38656;54.260;20.822;2023-02-01T13:04:38;15.45;;;5.90;;
52776;SDS011;38656;54.260;20.822;2023-02-01T13:07:12;20.13;;;6.85;;
52776;SDS011;38656;54.260;20.822;2023-02-01T13:09:44;12.63;;;7.75;;
52776;SDS011;38656;54.260;20.822;2023-02-01T13:12:13;16.48;;;8.75;;
52776;SDS011;38656;54.260;20.822;2023-02-01T13:14:46;67.80;;;36.83;;
52776;SDS011;38656;54.260;20.822;2023-02-01T13:17:16;38.35;;;21.35;;
52776;SDS011;38656;54.260;20.822;2023-02-01T13:19:49;20.00;;;7.50;;
52776;SDS011;38656;54.260;20.822;2023-02-01T13:22:21;14.48;;;9.60;;
52776;SDS011;38656;54.260;20.822;2023-02-01T13:24:52;14.30;;;7.57;;
52776;SDS011;38656;54.260;20.822;2023-02-01T13:27:20;22.80;;;10.05;;
52776;SDS011;38656;54.260;20.822;2023-02-01T13:29:55;24.02;;;14.00;;
52776;SDS011;38656;54.260;20.822;2023-02-01T13:32:26;32.40;;;21.42;;
52776;SDS011;38656;54.260;20.822;2023-02-01T13:37:48;26.50;;;10.25;;
52776;SDS011;38656;54.260;20.822;2023-02-01T13:42:51;22.50;;;10.30;;
52776;SDS011;38656;54.260;20.822;2023-02-01T13:45:23;26.38;;;12.38;;
52776;SDS011;38656;54.260;20.822;2023-02-01T13:47:50;22.65;;;10.43;;
52776;SDS011;38656;54.260;20.822;2023-02-01T13:52:52;24.63;;;14.27;;
52776;SDS011;38656;54.260;20.822;2023-02-01T13:57:52;14.55;;;8.32;;
52776;SDS011;38656;54.260;20.822;2023-02-01T14:23:44;27.27;;;16.50;;
52776;SDS011;38656;54.260;20.822;2023-02-01T14:26:13;24.55;;;15.85;;
52776;SDS011;38656;54.260;20.822;2023-02-01T14:28:41;34.30;;;19.88;;
52776;SDS011;38656;54.260;20.822;2023-02-01T14:31:14;40.10;;;26.38;;
52776;SDS011;38656;54.260;20.822;2023-02-01T14:33:41;19.33;;;11.70;;
52776;SDS011;38656;54.260;20.822;2023-02-01T14:36:09;37.85;;;23.48;;
52776;SDS011;38656;54.260;20.822;2023-02-01T14:38:36;20.00;;;9.00;;
52776;SDS011;38656;54.260;20.822;2023-02-01T14:41:13;12.05;;;7.22;;
52776;SDS011;38656;54.260;20.822;2023-02-01T14:44:42;13.38;;;8.07;;
52776;SDS011;38656;54.260;20.822;2023-02-01T14:49:22;15.35;;;10.90;;
52776;SDS011;38656;54.260;20.822;2023-02-01T14:51:49;14.80;;;8.98;;
52776;SDS011;38656;54.260;20.822;2023-02-01T14:54:16;14.73;;;9.60;;
52776;SDS011;38656;54.260;20.822;2023-02-01T14:56:45;13.23;;;9.63;;
52776;SDS011;38656;54.260;20.822;2023-02-01T14:59:12;15.98;;;9.60;;
52776;SDS011;38656;54.260;20.822;2023-02-01T15:01:46;17.52;;;12.90;;
52776;SDS011;38656;54.260;20.822;2023-02-01T15:04:15;17.95;;;12.07;;
52776;SDS011;38656;54.260;20.822;2023-02-01T15:09:24;53.50;;;25.65;;
52776;SDS011;38656;54.260;20.822;2023-02-01T15:17:01;16.42;;;10.25;;
52776;SDS011;38656;54.260;20.822;2023-02-01T15:19:27;19.40;;;12.38;;
52776;SDS011;38656;54.260;20.822;2023-02-01T15:21:55;14.10;;;8.48;;
52776;SDS011;38656;54.260;20.822;2023-02-01T15:24:25;20.73;;;12.73;;
52776;SDS011;38656;54.260;20.822;2023-02-01T15:26:52;20.20;;;11.20;;
52776;SDS011;38656;54.260;20.822;2023-02-01T15:29:19;20.42;;;12.75;;
52776;SDS011;38656;54.260;20.822;2023-02-01T15:31:47;22.52;;;19.83;;
52776;SDS011;38656;54.260;20.822;2023-02-01T15:34:13;16.42;;;11.18;;
52776;SDS011;38656;54.260;20.822;2023-02-01T15:36:40;34.28;;;21.33;;
52776;SDS011;38656;54.260;20.822;2023-02-01T15:41:51;29.23;;;20.95;;
52776;SDS011;38656;54.260;20.822;2023-02-01T15:44:32;15.68;;;13.98;;
52776;SDS011;38656;54.260;20.822;2023-02-01T15:46:59;18.60;;;14.15;;
52776;SDS011;38656;54.260;20.822;2023-02-01T15:49:27;15.23;;;10.63;;
52776;SDS011;38656;54.260;20.822;2023-02-01T15:51:55;15.70;;;8.73;;
52776;SDS011;38656;54.260;20.822;2023-02-01T15:54:24;17.30;;;11.40;;
52776;SDS011;38656;54.260;20.822;2023-02-01T15:56:53;36.05;;;23.25;;
52776;SDS011;38656;54.260;20.822;2023-02-01T15:59:20;19.17;;;17.23;;
52776;SDS011;38656;54.260;20.822;2023-02-01T16:01:47;12.30;;;10.30;;
52776;SDS011;38656;54.260;20.822;2023-02-01T16:09:15;16.90;;;10.32;;
52776;SDS011;38656;54.260;20.822;2023-02-01T16:11:51;23.50;;;13.23;;
52776;SDS011;38656;54.260;20.822;2023-02-01T16:14:18;22.05;;;15.07;;
52776;SDS011;38656;54.260;20.822;2023-02-01T16:16:44;23.55;;;12.10;;
52776;SDS011;38656;54.260;20.822;2023-02-01T16:19:11;14.45;;;10.35;;
52776;SDS011;38656;54.260;20.822;2023-02-01T16:21:37;17.40;;;11.35;;
52776;SDS011;38656;54.260;20.822;2023-02-01T16:24:03;17.75;;;11.63;;
52776;SDS011;38656;54.260;20.822;2023-02-01T16:26:30;18.65;;;11.13;;
52776;SDS011;38656;54.260;20.822;2023-02-01T16:28:56;14.50;;;8.60;;
52776;SDS011;38656;54.260;20.822;2023-02-01T16:31:26;22.88;;;15.20;;
52776;SDS011;38656;54.260;20.822;2023-02-01T16:33:53;35.08;;;22.98;;
52776;SDS011;38656;54.260;20.822;2023-02-01T16:36:19;124.80;;;62.47;;
52776;SDS011;38656;54.260;20.822;2023-02-01T16:38:45;150.57;;;77.03;;
52776;SDS011;38656;54.260;20.822;2023-02-01T16:41:14;68.53;;;48.08;;
52776;SDS011;38656;54.260;20.822;2023-02-01T16:43:41;49.13;;;25.85;;
52776;SDS011;38656;54.260;20.822;2023-02-01T16:46:11;43.67;;;32.97;;
52776;SDS011;38656;54.260;20.822;2023-02-01T16:48:38;96.30;;;60.35;;
52776;SDS011;38656;54.260;20.822;2023-02-01T16:51:09;52.90;;;37.38;;
52776;SDS011;38656;54.260;20.822;2023-02-01T16:53:36;164.48;;;89.70;;
52776;SDS011;38656;54.260;20.822;2023-02-01T16:56:16;230.65;;;117.70;;
52776;SDS011;38656;54.260;20.822;2023-02-01T16:58:43;54.95;;;45.20;;
52776;SDS011;38656;54.260;20.822;2023-02-01T17:01:10;67.13;;;51.60;;
52776;SDS011;38656;54.260;20.822;2023-02-01T17:03:36;151.32;;;86.22;;
52776;SDS011;38656;54.260;20.822;2023-02-01T17:06:02;25.17;;;15.98;;
52776;SDS011;38656;54.260;20.822;2023-02-01T17:08:33;31.58;;;20.63;;
52776;SDS011;38656;54.260;20.822;2023-02-01T17:11:02;42.67;;;34.53;;
52776;SDS011;38656;54.260;20.822;2023-02-01T17:13:28;32.88;;;21.58;;
52776;SDS011;38656;54.260;20.822;2023-02-01T17:16:01;63.72;;;38.65;;
52776;SDS011;38656;54.260;20.822;2023-02-01T17:18:28;29.60;;;19.23;;